Airfield :
LOGIN :

Register | Disclaimer

   EN    FR    IT 

 










Legend :    VFR   Marginal VFR   IFR   Intensive IFR   Very Intensive IFR
Visi :
Ceiling :
>= 8 km
>= 3000ft
5 to 8 km
1000 to 3000 ft
1500m to 5 km
500 to 1000 ft
800 to 1500m
200 to 500 ft
< 800m
< 200 ft
Symbols :   Thunderstorms  Fog  Heavy snow  Heavy precipitations  Wind > 20 kt
SIGMETs :     Misc.  Thunderstorms  Icing  Turbulence  Mountain Waves  Volcanic Ashes






- Airport Elevation : 19 ft
- IATA code : SMI


LGSM - Aristarchos of Samos

CURRENT METAR :
  • 071450Z 33007KT 9999 FEW025 25/11 Q1013

EXPIRED METARs :
  • 071350Z 34012KT 9999 FEW025 26/11 Q1013
  • 071250Z 36011KT 9999 FEW025 26/10 Q1013
  • 071150Z 35012KT 330V030 9999 FEW025 25/10 Q1014

TAF TAF LGSM
Valid from the 07 at 15:00 until the 08 at 00:00 UTC


071400Z 0715/0724 36013KT 9999 FEW025
TEMPO 0715/0724 36012G25KT



MET'MAP, your aeronautical weather chart ! - Copyright ORBIFLY December 2007 - Disclaimer

ORBIFLY MET'MAP TEAM :

Programming & Development : Alexandra Zaïnal
Original concept : Baudouin d'Aumeries
Technical & hardware support : Manuel Goepfert
Assistance : Marc-Olivier Méhu




SOURCES & CREDITS :

   NOAA